Woodland, Missouri
Current Conditions -  °F | °C
As of 12:15 PM on Thursday 30 Oct 2014 (Local Time) from KHAE Reporting Station
Broken Clouds Broken Clouds  
Wind Chill: 50°   Ceiling: 11000
Heat Index: 50°   Visibility: 10mi
Dew Point: 41°   Wind: 12mph
Humidity: 71%   Direction: 150°SSE
Pressure: 30.02"   Gusts: NA
Location:  39.7865°N, 91.559°W
Report Text: KHAE 301715Z AUTO 15010KT 10SM SCT090 BKN110 10/05 A3002 RMK AO2
Loading
Personal Weather Stations






























Interactive Weather Map
Tropical Storm Tracking
New forecast layout! Learn more

10-Day Weather Forecast

Advertisements
Track Severe Weather on mobile